createdAt,value
2023-04-20T00:00:58.044Z,99919.03
2023-04-20T00:02:04.161Z,99924.85
2023-04-20T00:03:09.668Z,99915.72
2023-04-20T00:04:13.263Z,99917.65
2023-04-20T00:05:18.583Z,99924.05
2023-04-20T00:06:21.664Z,99917.22
2023-04-20T00:07:24.496Z,99912.02
2023-04-20T00:08:27.475Z,99914.94
2023-04-20T00:09:31.602Z,99912.27
2023-04-20T00:10:35.218Z,99914.26
2023-04-20T00:11:40.032Z,99912.17
2023-04-20T00:12:45.245Z,99908.08
2023-04-20T00:13:47.720Z,99906.77
2023-04-20T00:14:50.282Z,99911.75
2023-04-20T00:15:53.566Z,99914.26
2023-04-20T00:16:58.398Z,99905.38
2023-04-20T00:18:02.432Z,99899.95
2023-04-20T00:19:07.122Z,99906.89
2023-04-20T00:20:11.453Z,99905.08
2023-04-20T00:21:15.582Z,99900.61
2023-04-20T00:22:19.725Z,99902.84
2023-04-20T00:23:25.065Z,99898.98
2023-04-20T00:24:28.625Z,99898.67
2023-04-20T00:25:32.006Z,99900.69
2023-04-20T00:26:36.357Z,99900.11
2023-04-20T00:27:42.613Z,99894.97
2023-04-20T00:28:45.991Z,99896.05
2023-04-20T00:29:49.482Z,99894.01
2023-04-20T00:30:53.433Z,99893.77
2023-04-20T00:32:02.070Z,99890.77
2023-04-20T00:33:05.690Z,99889.19
2023-04-20T00:34:09.663Z,99893.03
2023-04-20T00:35:13.794Z,99888.45
2023-04-20T00:36:18.041Z,99891.63
2023-04-20T00:37:21.533Z,99890.50
2023-04-20T00:38:24.829Z,99884.11
2023-04-20T00:39:29.096Z,99891.27
2023-04-20T00:40:32.780Z,99891.73
2023-04-20T00:41:36.702Z,99889.69
2023-04-20T00:42:41.997Z,99890.69
2023-04-20T00:43:53.020Z,99888.92
2023-04-20T00:44:56.616Z,99884.83
2023-04-20T00:46:00.256Z,99885.05
2023-04-20T00:47:03.309Z,99883.36
2023-04-20T00:48:08.735Z,99878.27
2023-04-20T00:49:11.993Z,99878.87
2023-04-20T00:50:15.385Z,99877.08
2023-04-20T00:51:18.876Z,99878.67
2023-04-20T00:52:23.854Z,99879.75
2023-04-20T00:53:28.002Z,99868.38
2023-04-20T00:54:32.775Z,99874.05
2023-04-20T00:55:37.725Z,99869.72
2023-04-20T00:56:41.429Z,99873.23
2023-04-20T00:57:45.028Z,99872.61
2023-04-20T00:58:49.178Z,99870.69
2023-04-20T00:59:51.636Z,99871.25
2023-04-20T01:00:54.187Z,99871.64
2023-04-20T01:01:59.474Z,99867.76
2023-04-20T01:03:03.900Z,99870.80
2023-04-20T01:04:08.308Z,99866.06
2023-04-20T01:05:11.886Z,99860.39
2023-04-20T01:06:16.544Z,99870.42
2023-04-20T01:07:19.829Z,99867.64
2023-04-20T01:08:28.440Z,99865.70
2023-04-20T01:09:32.177Z,99871.25
2023-04-20T01:10:35.776Z,99866.67
2023-04-20T01:11:39.181Z,99862.43
2023-04-20T01:12:45.818Z,99865.09
2023-04-20T01:13:51.002Z,99866.78
2023-04-20T01:14:53.665Z,99861.92
2023-04-20T01:15:59.472Z,99866.44
2023-04-20T01:17:05.592Z,99864.25
2023-04-20T01:18:10.155Z,99860.00
2023-04-20T01:19:15.570Z,99859.89
2023-04-20T01:20:20.279Z,99860.74
2023-04-20T01:21:23.586Z,99857.34
2023-04-20T01:22:29.712Z,99856.25
2023-04-20T01:23:34.965Z,99858.42
2023-04-20T01:24:39.306Z,99853.72
2023-04-20T01:25:43.654Z,99863.28
2023-04-20T01:26:46.973Z,99859.14
2023-04-20T01:27:49.394Z,99850.94
2023-04-20T01:28:54.747Z,99857.44
2023-04-20T01:29:58.957Z,99859.37
2023-04-20T01:31:04.417Z,99855.02
2023-04-20T01:32:09.702Z,99849.63
2023-04-20T01:33:13.507Z,99857.95
2023-04-20T01:34:18.403Z,99854.69
2023-04-20T01:35:22.084Z,99855.91
2023-04-20T01:36:25.270Z,99853.59
2023-04-20T01:37:28.781Z,99855.53
2023-04-20T01:38:33.752Z,99854.45
2023-04-20T01:39:39.591Z,99858.92
2023-04-20T01:40:43.109Z,99852.12
2023-04-20T01:41:46.446Z,99860.62
2023-04-20T01:42:49.565Z,99853.10
2023-04-20T01:43:53.154Z,99844.88
2023-04-20T01:44:56.441Z,99852.12
2023-04-20T01:46:01.996Z,99843.69
2023-04-20T01:47:05.639Z,99842.97
2023-04-20T01:48:09.073Z,99847.78
2023-04-20T01:49:12.348Z,99844.89
2023-04-20T01:50:14.598Z,99838.14
2023-04-20T01:51:17.886Z,99848.16
2023-04-20T01:52:21.095Z,99837.41
2023-04-20T01:53:26.667Z,99839.62
2023-04-20T01:54:30.197Z,99834.99
2023-04-20T01:55:32.857Z,99834.14
2023-04-20T01:56:36.475Z,99839.62
2023-04-20T01:57:39.713Z,99837.80
2023-04-20T01:58:42.852Z,99834.88
2023-04-20T01:59:46.247Z,99830.81
2023-04-20T02:00:48.957Z,99828.39
2023-04-20T02:01:52.767Z,99828.98
2023-04-20T02:02:56.659Z,99828.98
2023-04-20T02:04:00.285Z,99826.58
2023-04-20T02:05:05.183Z,99823.92
2023-04-20T02:06:13.273Z,99826.58
2023-04-20T02:07:17.371Z,99824.19
2023-04-20T02:08:22.090Z,99819.80
2023-04-20T02:09:25.319Z,99821.14
2023-04-20T02:10:28.395Z,99824.19
2023-04-20T02:11:32.662Z,99824.47
2023-04-20T02:12:36.356Z,99826.39
2023-04-20T02:13:40.711Z,99829.44
2023-04-20T02:14:45.475Z,99825.44
2023-04-20T02:15:47.837Z,99822.31
2023-04-20T02:16:50.181Z,99819.77
2023-04-20T02:17:52.974Z,99817.22
2023-04-20T02:18:57.078Z,99815.17
2023-04-20T02:20:01.644Z,99820.73
2023-04-20T02:21:07.262Z,99824.23
2023-04-20T02:22:10.088Z,99814.56
2023-04-20T02:23:13.388Z,99816.88
2023-04-20T02:24:16.860Z,99816.38
2023-04-20T02:25:21.248Z,99815.64
2023-04-20T02:26:24.752Z,99817.83
2023-04-20T02:27:28.681Z,99811.67
2023-04-20T02:28:33.156Z,99812.41
2023-04-20T02:29:36.286Z,99813.37
2023-04-20T02:30:39.700Z,99805.23
2023-04-20T02:31:43.080Z,99807.90
2023-04-20T02:32:45.588Z,99802.97
2023-04-20T02:33:51.668Z,99802.37
2023-04-20T02:34:55.515Z,99808.16
2023-04-20T02:36:02.787Z,99808.89
2023-04-20T02:37:06.677Z,99807.93
2023-04-20T02:38:11.333Z,99806.61
2023-04-20T02:39:16.193Z,99808.22
2023-04-20T02:40:18.959Z,99810.23
2023-04-20T02:41:21.230Z,99808.89
2023-04-20T02:42:24.937Z,99806.70
2023-04-20T02:43:28.543Z,99812.64
2023-04-20T02:44:32.558Z,99811.17
2023-04-20T02:45:36.904Z,99807.55
2023-04-20T02:46:40.837Z,99808.66
2023-04-20T02:47:46.327Z,99814.45
2023-04-20T02:48:51.218Z,99815.64
2023-04-20T02:49:55.100Z,99815.77
2023-04-20T02:50:58.290Z,99808.75
2023-04-20T02:52:03.689Z,99812.02
2023-04-20T02:53:07.296Z,99808.28
2023-04-20T02:54:11.013Z,99813.83
2023-04-20T02:55:15.096Z,99811.55
2023-04-20T02:56:19.798Z,99811.05
2023-04-20T02:57:25.065Z,99808.40
2023-04-20T02:58:28.714Z,99815.88
2023-04-20T02:59:50.658Z,99812.48
2023-04-20T03:01:02.117Z,99815.17
2023-04-20T03:02:09.261Z,99812.75
2023-04-20T03:03:17.085Z,99810.66
2023-04-20T03:04:21.953Z,99804.89
2023-04-20T03:05:28.384Z,99804.89
2023-04-20T03:06:33.101Z,99814.28
2023-04-20T03:07:37.138Z,99820.95
2023-04-20T03:08:41.164Z,99815.14
2023-04-20T03:09:48.116Z,99809.13
2023-04-20T03:10:56.318Z,99819.27
2023-04-20T03:11:59.864Z,99808.86
2023-04-20T03:13:21.517Z,99812.98
2023-04-20T03:14:32.887Z,99809.36
2023-04-20T03:15:37.202Z,99804.38
2023-04-20T03:16:46.034Z,99800.53
2023-04-20T03:17:49.660Z,99813.09
2023-04-20T03:18:54.737Z,99813.44
2023-04-20T03:19:59.392Z,99802.95
2023-04-20T03:21:02.784Z,99803.77
2023-04-20T03:22:06.360Z,99811.05
2023-04-20T03:23:13.620Z,99810.31
2023-04-20T03:24:19.754Z,99803.41
2023-04-20T03:25:24.828Z,99806.93
2023-04-20T03:26:35.330Z,99815.63
2023-04-20T03:27:53.272Z,99807.75
2023-04-20T03:28:58.245Z,99807.27
2023-04-20T03:30:02.144Z,99798.21
2023-04-20T03:31:07.199Z,99805.73
2023-04-20T03:32:10.528Z,99801.21
2023-04-20T03:33:14.230Z,99812.73
2023-04-20T03:34:16.884Z,99807.58
2023-04-20T03:35:23.427Z,99803.64
2023-04-20T03:36:28.592Z,99810.27
2023-04-20T03:37:31.883Z,99803.85
2023-04-20T03:38:36.214Z,99807.88
2023-04-20T03:39:41.220Z,99813.81
2023-04-20T03:40:44.489Z,99804.95
2023-04-20T03:41:48.833Z,99805.44
2023-04-20T03:42:53.244Z,99806.53
2023-04-20T03:43:58.480Z,99803.87
2023-04-20T03:45:01.010Z,99800.58
2023-04-20T03:46:04.684Z,99807.45
2023-04-20T03:47:07.308Z,99804.45
2023-04-20T03:48:09.867Z,99800.33
2023-04-20T03:49:13.049Z,99798.14
2023-04-20T03:50:16.866Z,99798.03
2023-04-20T03:51:19.246Z,99803.51
2023-04-20T03:52:22.281Z,99801.80
2023-04-20T03:53:25.741Z,99798.41
2023-04-20T03:54:34.757Z,99798.94
2023-04-20T03:55:38.380Z,99796.50
2023-04-20T03:56:45.693Z,99793.40
2023-04-20T03:57:49.451Z,99791.11
2023-04-20T03:58:53.058Z,99795.34
2023-04-20T03:59:59.859Z,99793.73
2023-04-20T04:01:07.052Z,99793.70
2023-04-20T04:02:12.750Z,99787.69
2023-04-20T04:03:18.139Z,99791.00
2023-04-20T04:04:21.984Z,99789.78
2023-04-20T04:05:27.966Z,99788.28
2023-04-20T04:06:33.849Z,99782.97
2023-04-20T04:07:37.609Z,99786.80
2023-04-20T04:08:40.791Z,99782.67
2023-04-20T04:09:43.994Z,99779.28
2023-04-20T04:10:46.673Z,99780.02
2023-04-20T04:11:51.518Z,99777.36
2023-04-20T04:12:55.754Z,99780.35
2023-04-20T04:13:59.157Z,99778.69
2023-04-20T04:15:04.252Z,99775.62
2023-04-20T04:16:10.656Z,99769.25
2023-04-20T04:17:18.614Z,99781.34
2023-04-20T04:18:22.148Z,99783.19
2023-04-20T04:19:26.843Z,99774.78
2023-04-20T04:20:29.590Z,99771.91
2023-04-20T04:21:33.709Z,99775.22
2023-04-20T04:22:38.887Z,99771.80
2023-04-20T04:24:09.031Z,99771.39
2023-04-20T04:25:18.287Z,99776.07
2023-04-20T04:26:25.029Z,99778.50
2023-04-20T04:27:31.984Z,99774.16
2023-04-20T04:28:35.483Z,99780.83
2023-04-20T04:29:42.640Z,99775.36
2023-04-20T04:30:47.915Z,99779.87
2023-04-20T04:31:51.528Z,99774.73
2023-04-20T04:32:57.241Z,99776.81
2023-04-20T04:34:02.523Z,99781.33
2023-04-20T04:35:16.534Z,99780.70
2023-04-20T04:36:20.607Z,99774.84
2023-04-20T04:37:24.627Z,99777.39
2023-04-20T04:38:29.624Z,99770.42
2023-04-20T04:39:32.914Z,99778.83
2023-04-20T04:40:38.642Z,99776.65
2023-04-20T04:41:42.094Z,99778.67
2023-04-20T04:42:49.009Z,99778.02
2023-04-20T04:43:53.069Z,99781.22
2023-04-20T04:44:59.069Z,99782.75
2023-04-20T04:46:11.139Z,99784.94
2023-04-20T04:47:15.177Z,99783.92
2023-04-20T04:48:19.538Z,99793.58
2023-04-20T04:49:27.170Z,99797.77
2023-04-20T04:50:32.640Z,99791.78
2023-04-20T04:51:35.940Z,99790.47
2023-04-20T04:52:39.493Z,99795.02
2023-04-20T04:53:43.937Z,99789.02
2023-04-20T04:54:46.816Z,99791.20
2023-04-20T04:55:50.527Z,99790.93
2023-04-20T04:56:53.616Z,99793.70
2023-04-20T04:57:56.806Z,99791.44
2023-04-20T04:59:00.313Z,99794.09
2023-04-20T05:00:06.764Z,99788.46
2023-04-20T05:01:10.351Z,99798.33
2023-04-20T05:02:14.724Z,99800.70
2023-04-20T05:03:18.265Z,99796.75
2023-04-20T05:04:21.815Z,99790.88
2023-04-20T05:05:26.667Z,99797.14
2023-04-20T05:06:30.380Z,99794.72
2023-04-20T05:07:33.037Z,99792.63
2023-04-20T05:08:36.345Z,99795.77
2023-04-20T05:09:39.666Z,99799.92
2023-04-20T05:10:44.075Z,99798.78
2023-04-20T05:11:49.781Z,99792.18
2023-04-20T05:12:54.438Z,99792.28
2023-04-20T05:13:58.912Z,99795.41
2023-04-20T05:15:02.190Z,99796.53
2023-04-20T05:16:06.022Z,99800.25
2023-04-20T05:17:09.505Z,99794.09
2023-04-20T05:18:11.970Z,99798.59
2023-04-20T05:19:16.354Z,99799.37
2023-04-20T05:20:20.990Z,99793.39
2023-04-20T05:21:24.271Z,99795.05
2023-04-20T05:22:28.825Z,99798.05
2023-04-20T05:23:32.219Z,99795.16
2023-04-20T05:24:37.402Z,99790.59
2023-04-20T05:25:42.051Z,99803.84
2023-04-20T05:26:44.688Z,99794.92
2023-04-20T05:27:49.763Z,99789.53
2023-04-20T05:28:53.058Z,99793.75
2023-04-20T05:29:58.428Z,99796.23
2023-04-20T05:31:05.329Z,99791.78
2023-04-20T05:32:08.780Z,99785.28
2023-04-20T05:33:11.370Z,99797.31
2023-04-20T05:34:17.179Z,99794.77
2023-04-20T05:36:24.139Z,99791.70
2023-04-20T05:37:27.369Z,99798.27
2023-04-20T05:38:30.364Z,99792.18
2023-04-20T05:39:33.030Z,99792.28
2023-04-20T05:40:36.237Z,99793.66
2023-04-20T05:41:39.609Z,99795.55
2023-04-20T05:42:42.809Z,99800.02
2023-04-20T05:43:46.097Z,99791.09
2023-04-20T05:44:51.120Z,99791.77
2023-04-20T05:45:57.850Z,99791.73
2023-04-20T05:47:02.227Z,99805.11
2023-04-20T05:48:05.723Z,99800.32
2023-04-20T05:49:11.261Z,99798.78
2023-04-20T05:50:16.121Z,99802.02
2023-04-20T05:51:19.290Z,99803.63
2023-04-20T05:52:25.534Z,99792.16
2023-04-20T05:53:28.817Z,99796.81
2023-04-20T05:54:32.483Z,99801.33
2023-04-20T05:55:36.166Z,99806.39
2023-04-20T05:56:39.563Z,99807.59
2023-04-20T05:57:45.501Z,99804.94
2023-04-20T05:58:49.925Z,99802.52
2023-04-20T05:59:53.628Z,99818.67
2023-04-20T06:00:57.438Z,99810.36
2023-04-20T06:02:01.436Z,99817.66
2023-04-20T06:03:05.594Z,99799.45
2023-04-20T06:04:10.513Z,99812.69
2023-04-20T06:05:15.151Z,99813.47
2023-04-20T06:06:18.437Z,99802.30
2023-04-20T06:07:22.979Z,99803.00
2023-04-20T06:08:26.455Z,99806.39
2023-04-20T06:09:31.138Z,99802.22
2023-04-20T06:10:36.824Z,99805.61
2023-04-20T06:11:41.074Z,99793.73
2023-04-20T06:12:44.379Z,99804.30
2023-04-20T06:13:48.901Z,99798.29
2023-04-20T06:14:53.761Z,99797.92
2023-04-20T06:15:57.232Z,99793.66
2023-04-20T06:17:00.449Z,99801.48
2023-04-20T06:18:04.239Z,99788.31
2023-04-20T06:19:06.734Z,99797.13
2023-04-20T06:20:11.146Z,99783.51
2023-04-20T06:21:13.646Z,99792.33
2023-04-20T06:22:17.452Z,99786.02
2023-04-20T06:23:21.698Z,99787.49
2023-04-20T06:24:25.098Z,99786.75
2023-04-20T06:25:28.802Z,99769.19
2023-04-20T06:26:32.213Z,99777.17
2023-04-20T06:27:36.763Z,99783.11
2023-04-20T06:28:40.483Z,99776.60
2023-04-20T06:29:43.978Z,99775.75
2023-04-20T06:30:48.634Z,99770.06
2023-04-20T06:31:52.308Z,99769.83
2023-04-20T06:32:55.991Z,99765.24
2023-04-20T06:34:00.853Z,99761.38
2023-04-20T06:35:05.049Z,99759.34
2023-04-20T06:36:10.365Z,99760.66
2023-04-20T06:37:14.004Z,99756.30
2023-04-20T06:38:16.300Z,99763.20
2023-04-20T06:39:19.868Z,99769.12
2023-04-20T06:40:24.461Z,99758.49
2023-04-20T06:41:27.859Z,99763.08
2023-04-20T06:42:31.173Z,99757.11
2023-04-20T06:43:33.954Z,99765.86
2023-04-20T06:44:37.434Z,99772.52
2023-04-20T06:45:41.147Z,99773.83
2023-04-20T06:46:44.982Z,99770.32
2023-04-20T06:47:48.660Z,99773.13
2023-04-20T06:48:52.098Z,99763.83
2023-04-20T06:49:54.438Z,99773.13
2023-04-20T06:50:57.630Z,99767.05
2023-04-20T06:52:03.984Z,99762.12
2023-04-20T06:53:09.318Z,99771.67
2023-04-20T06:54:12.113Z,99769.02
2023-04-20T06:55:15.220Z,99764.04
2023-04-20T06:56:19.055Z,99762.61
2023-04-20T06:57:22.614Z,99752.70
2023-04-20T06:58:25.807Z,99759.44
2023-04-20T06:59:29.216Z,99758.71
2023-04-20T07:00:31.881Z,99762.95
2023-04-20T07:01:35.080Z,99766.09
2023-04-20T07:02:46.431Z,99763.55
2023-04-20T07:03:49.835Z,99759.44
2023-04-20T07:04:53.423Z,99769.99
2023-04-20T07:05:56.647Z,99758.38
2023-04-20T07:07:00.230Z,99757.05
2023-04-20T07:08:02.982Z,99760.53
2023-04-20T07:09:10.596Z,99750.13
2023-04-20T07:10:15.132Z,99770.69
2023-04-20T07:11:18.452Z,99756.06
2023-04-20T07:12:21.606Z,99764.89
2023-04-20T07:13:23.755Z,99763.56
2023-04-20T07:14:27.580Z,99755.10
2023-04-20T07:15:31.955Z,99747.72
2023-04-20T07:16:36.142Z,99749.04
2023-04-20T07:17:38.577Z,99752.91
2023-04-20T07:18:42.334Z,99752.70
2023-04-20T07:19:53.444Z,99755.94
2023-04-20T07:20:58.129Z,99761.38
2023-04-20T07:22:04.765Z,99745.92
2023-04-20T07:23:08.052Z,99754.72
2023-04-20T07:24:12.125Z,99747.59
2023-04-20T07:25:15.688Z,99750.63
2023-04-20T07:26:19.083Z,99751.83
2023-04-20T07:27:21.863Z,99752.55
2023-04-20T07:28:24.105Z,99759.81
2023-04-20T07:29:27.150Z,99748.94
2023-04-20T07:30:30.916Z,99757.41
2023-04-20T07:31:35.396Z,99754.72
2023-04-20T07:32:42.715Z,99743.50
2023-04-20T07:33:48.781Z,99734.89
2023-04-20T07:34:52.247Z,99743.25
2023-04-20T07:35:57.234Z,99756.90
2023-04-20T07:37:00.430Z,99745.44
2023-04-20T07:38:03.382Z,99750.75
2023-04-20T07:39:07.063Z,99738.67
2023-04-20T07:40:10.936Z,99746.27
2023-04-20T07:41:15.089Z,99742.64
2023-04-20T07:42:18.570Z,99738.06
2023-04-20T07:43:22.887Z,99749.04
2023-04-20T07:44:27.872Z,99745.42
2023-04-20T07:45:31.676Z,99740.97
2023-04-20T07:46:36.964Z,99739.88
2023-04-20T07:47:40.280Z,99746.63
2023-04-20T07:48:45.534Z,99733.21
2023-04-20T07:49:48.625Z,99738.41
2023-04-20T07:50:52.138Z,99743.02
2023-04-20T07:51:58.706Z,99736.35
2023-04-20T07:53:00.597Z,99761.62
2023-04-20T07:54:06.900Z,99741.08
2023-04-20T07:55:12.369Z,99751.84
2023-04-20T07:56:15.936Z,99745.19
2023-04-20T07:57:23.185Z,99750.16
2023-04-20T07:58:26.904Z,99740.84
2023-04-20T07:59:30.099Z,99744.34
2023-04-20T08:00:35.293Z,99751.58
2023-04-20T08:01:38.661Z,99743.53
2023-04-20T08:02:42.656Z,99749.77
2023-04-20T08:03:45.520Z,99743.88
2023-04-20T08:04:51.087Z,99747.61
2023-04-20T08:05:54.696Z,99763.70
2023-04-20T08:07:00.099Z,99753.88
2023-04-20T08:08:03.572Z,99757.27
2023-04-20T08:09:07.074Z,99752.80
2023-04-20T08:10:10.488Z,99756.06
2023-04-20T08:11:14.279Z,99746.39
2023-04-20T08:12:17.521Z,99751.46
2023-04-20T08:13:22.226Z,99752.94
2023-04-20T08:14:27.512Z,99747.84
2023-04-20T08:15:32.187Z,99757.14
2023-04-20T08:16:35.532Z,99754.13
2023-04-20T08:17:39.341Z,99755.92
2023-04-20T08:18:43.016Z,99755.52
2023-04-20T08:19:47.866Z,99757.61
2023-04-20T08:20:51.996Z,99753.88
2023-04-20T08:21:55.426Z,99752.44
2023-04-20T08:24:02.099Z,99743.74
2023-04-20T08:25:06.804Z,99755.57
2023-04-20T08:26:11.195Z,99753.03
2023-04-20T08:27:13.853Z,99745.55
2023-04-20T08:28:29.510Z,99742.39
2023-04-20T08:29:21.944Z,99747.70
2023-04-20T08:30:25.839Z,99749.91
2023-04-20T08:31:29.907Z,99746.75
2023-04-20T08:32:33.769Z,99754.95
2023-04-20T08:33:38.477Z,99750.87
2023-04-20T08:34:41.955Z,99744.32
2023-04-20T08:35:48.529Z,99749.64
2023-04-20T08:36:52.521Z,99750.75
2023-04-20T08:37:56.317Z,99755.34
2023-04-20T08:39:09.961Z,99747.59
2023-04-20T08:40:14.002Z,99744.81
2023-04-20T08:41:17.704Z,99747.71
2023-04-20T08:42:21.836Z,99751.22
2023-04-20T08:43:27.124Z,99746.02
2023-04-20T08:44:31.161Z,99746.05
2023-04-20T08:45:35.688Z,99748.33
2023-04-20T08:46:41.490Z,99748.82
2023-04-20T08:47:46.819Z,99745.78
2023-04-20T08:48:50.641Z,99741.43
2023-04-20T08:49:56.220Z,99743.86
2023-04-20T08:50:59.803Z,99758.61
2023-04-20T08:52:03.099Z,99754.48
2023-04-20T08:53:06.504Z,99753.06
2023-04-20T08:54:10.308Z,99747.50
2023-04-20T08:55:20.084Z,99750.98
2023-04-20T08:56:33.931Z,99748.32
2023-04-20T08:57:37.230Z,99744.47
2023-04-20T08:58:42.717Z,99749.19
2023-04-20T08:59:46.001Z,99760.17
2023-04-20T09:00:49.313Z,99750.27
2023-04-20T09:01:52.576Z,99747.59
2023-04-20T09:02:57.238Z,99749.65
2023-04-20T09:04:00.196Z,99749.78
2023-04-20T09:05:05.431Z,99751.95
2023-04-20T09:06:17.340Z,99746.04
2023-04-20T09:07:22.061Z,99753.90
2023-04-20T09:08:27.199Z,99754.73
2023-04-20T09:09:29.884Z,99748.94
2023-04-20T09:10:40.494Z,99753.41
2023-04-20T09:11:42.742Z,99752.42
2023-04-20T09:12:46.988Z,99747.61
2023-04-20T09:13:59.976Z,99754.63
2023-04-20T09:15:05.777Z,99761.38
2023-04-20T09:16:12.992Z,99757.02
2023-04-20T09:17:18.440Z,99761.25
2023-04-20T09:18:22.036Z,99766.23
2023-04-20T09:19:28.860Z,99764.87
2023-04-20T09:20:33.976Z,99753.65
2023-04-20T09:21:38.024Z,99754.75
2023-04-20T09:22:41.287Z,99747.25
2023-04-20T09:23:44.782Z,99751.58
2023-04-20T09:24:48.615Z,99750.64
2023-04-20T09:25:54.762Z,99755.72
2023-04-20T09:26:58.778Z,99748.70
2023-04-20T09:28:02.703Z,99747.38
2023-04-20T09:29:07.947Z,99753.79
2023-04-20T09:30:12.923Z,99744.77
2023-04-20T09:31:20.442Z,99758.89
2023-04-20T09:32:24.266Z,99753.64
2023-04-20T09:33:32.716Z,99751.34
2023-04-20T09:34:45.648Z,99751.70
2023-04-20T09:35:50.300Z,99756.75
2023-04-20T09:36:56.488Z,99756.75
2023-04-20T09:37:59.916Z,99750.37
2023-04-20T09:39:04.465Z,99760.78
2023-04-20T09:40:10.252Z,99763.56
2023-04-20T09:41:15.016Z,99765.86
2023-04-20T09:42:17.596Z,99755.34
2023-04-20T09:43:21.108Z,99756.81
2023-04-20T09:44:24.695Z,99765.98
2023-04-20T09:45:28.372Z,99757.03
2023-04-20T09:46:32.066Z,99753.41
2023-04-20T09:47:39.969Z,99763.57
2023-04-20T09:48:44.367Z,99765.63
2023-04-20T09:49:49.238Z,99758.11
2023-04-20T09:50:53.174Z,99751.09
2023-04-20T09:51:59.673Z,99757.53
2023-04-20T09:53:04.427Z,99763.81
2023-04-20T09:54:09.549Z,99762.47
2023-04-20T09:55:14.146Z,99765.13
2023-04-20T09:56:17.767Z,99764.89
2023-04-20T09:57:21.909Z,99759.69
2023-04-20T09:58:26.344Z,99757.03
2023-04-20T09:59:30.195Z,99768.52
2023-04-20T10:00:35.036Z,99765.47
2023-04-20T10:01:39.275Z,99765.59
2023-04-20T10:02:45.485Z,99776.09
2023-04-20T10:03:52.277Z,99771.75
2023-04-20T10:04:57.022Z,99767.66
2023-04-20T10:06:00.244Z,99764.39
2023-04-20T10:07:04.331Z,99769.86
2023-04-20T10:08:07.710Z,99771.28
2023-04-20T10:09:12.850Z,99762.70
2023-04-20T10:10:19.354Z,99761.61
2023-04-20T10:11:31.425Z,99770.08
2023-04-20T10:12:32.886Z,99767.66
2023-04-20T10:13:37.677Z,99760.05
2023-04-20T10:14:40.970Z,99762.23
2023-04-20T10:15:43.971Z,99767.66
2023-04-20T10:16:48.547Z,99772.02
2023-04-20T10:17:51.861Z,99762.95
2023-04-20T10:18:58.912Z,99758.20
2023-04-20T10:20:02.773Z,99759.05
2023-04-20T10:21:08.489Z,99766.91
2023-04-20T10:22:14.601Z,99762.34
2023-04-20T10:23:21.084Z,99760.92
2023-04-20T10:24:32.259Z,99759.81
2023-04-20T10:25:35.541Z,99760.46
2023-04-20T10:26:43.097Z,99757.08
2023-04-20T10:27:56.889Z,99767.48
2023-04-20T10:29:00.124Z,99767.40
2023-04-20T10:30:10.445Z,99753.81
2023-04-20T10:31:15.037Z,99765.30
2023-04-20T10:32:22.059Z,99755.94
2023-04-20T10:33:25.365Z,99767.44
2023-04-20T10:34:31.479Z,99763.48
2023-04-20T10:35:51.814Z,99757.75
2023-04-20T10:36:54.877Z,99771.31
2023-04-20T10:37:58.014Z,99761.39
2023-04-20T10:39:06.494Z,99771.95
2023-04-20T10:40:12.154Z,99768.25
2023-04-20T10:41:16.649Z,99771.69
2023-04-20T10:42:20.151Z,99764.28
2023-04-20T10:43:24.502Z,99774.81
2023-04-20T10:44:30.202Z,99765.03
2023-04-20T10:45:40.079Z,99768.41
2023-04-20T10:46:42.577Z,99767.91
2023-04-20T10:47:45.612Z,99781.80
2023-04-20T10:48:53.924Z,99769.97
2023-04-20T10:50:09.146Z,99777.57
2023-04-20T10:51:12.107Z,99779.03
2023-04-20T10:52:15.501Z,99773.09
2023-04-20T10:53:21.948Z,99775.30
2023-04-20T10:54:30.134Z,99776.98
2023-04-20T10:55:35.104Z,99772.37
2023-04-20T10:56:39.336Z,99777.84
2023-04-20T10:57:46.104Z,99775.91
2023-04-20T10:58:48.527Z,99780.37
2023-04-20T10:59:54.445Z,99782.42
2023-04-20T11:00:59.710Z,99775.52
2023-04-20T11:02:07.082Z,99778.68
2023-04-20T11:03:12.802Z,99779.87
2023-04-20T11:04:18.923Z,99776.73
2023-04-20T11:05:25.028Z,99775.66
2023-04-20T11:06:29.371Z,99785.81
2023-04-20T11:07:33.828Z,99778.56
2023-04-20T11:08:37.633Z,99785.43
2023-04-20T11:09:40.115Z,99781.45
2023-04-20T11:10:46.978Z,99780.11
2023-04-20T11:12:04.384Z,99784.34
2023-04-20T11:13:08.268Z,99782.41
2023-04-20T11:14:11.557Z,99793.55
2023-04-20T11:15:15.165Z,99775.91
2023-04-20T11:16:20.490Z,99795.25
2023-04-20T11:17:37.330Z,99784.84
2023-04-20T11:18:56.200Z,99792.20
2023-04-20T11:20:12.302Z,99789.78
2023-04-20T11:21:18.838Z,99789.20
2023-04-20T11:22:25.109Z,99789.33
2023-04-20T11:23:31.713Z,99791.12
2023-04-20T11:24:36.682Z,99783.85
2023-04-20T11:25:41.681Z,99790.16
2023-04-20T11:26:45.364Z,99801.53
2023-04-20T11:27:48.865Z,99795.24
2023-04-20T11:28:54.526Z,99784.23
2023-04-20T11:30:00.108Z,99796.09
2023-04-20T11:31:04.627Z,99793.92
2023-04-20T11:32:10.881Z,99805.77
2023-04-20T11:33:15.850Z,99798.02
2023-04-20T11:34:19.811Z,99793.55
2023-04-20T11:35:22.480Z,99790.27
2023-04-20T11:36:30.472Z,99796.67
2023-04-20T11:37:34.033Z,99795.73
2023-04-20T11:38:38.225Z,99795.85
2023-04-20T11:39:43.174Z,99791.62
2023-04-20T11:40:47.644Z,99800.06
2023-04-20T11:41:54.407Z,99797.33
2023-04-20T11:42:58.119Z,99806.28
2023-04-20T11:44:00.969Z,99795.24
2023-04-20T11:45:05.557Z,99799.12
2023-04-20T11:46:18.662Z,99793.92
2023-04-20T11:47:22.497Z,99788.36
2023-04-20T11:48:25.451Z,99798.53
2023-04-20T11:49:29.995Z,99791.14
2023-04-20T11:50:33.381Z,99792.20
2023-04-20T11:51:36.781Z,99785.67
2023-04-20T11:52:40.008Z,99795.14
2023-04-20T11:53:42.847Z,99783.73
2023-04-20T11:54:46.154Z,99793.14
2023-04-20T11:55:49.231Z,99802.12
2023-04-20T11:56:51.910Z,99790.88
2023-04-20T11:57:56.253Z,99789.99
2023-04-20T11:58:59.762Z,99791.08
2023-04-20T12:00:03.156Z,99789.39
2023-04-20T12:01:07.599Z,99785.06
2023-04-20T12:02:12.959Z,99793.94
2023-04-20T12:03:16.780Z,99782.97
2023-04-20T12:04:21.044Z,99789.22
2023-04-20T12:05:24.643Z,99781.55
2023-04-20T12:06:28.371Z,99784.57
2023-04-20T12:07:33.532Z,99781.55
2023-04-20T12:08:38.759Z,99782.69
2023-04-20T12:09:42.007Z,99776.83
2023-04-20T12:10:45.862Z,99783.40
2023-04-20T12:11:48.513Z,99779.48
2023-04-20T12:12:53.458Z,99783.05
2023-04-20T12:14:01.805Z,99791.52
2023-04-20T12:15:05.807Z,99786.55
2023-04-20T12:16:09.593Z,99774.45
2023-04-20T12:17:12.275Z,99768.70
2023-04-20T12:18:15.475Z,99769.78
2023-04-20T12:19:19.297Z,99772.89
2023-04-20T12:20:22.562Z,99774.03
2023-04-20T12:21:26.220Z,99779.59
2023-04-20T12:22:29.482Z,99776.38
2023-04-20T12:23:35.824Z,99766.89
2023-04-20T12:24:38.742Z,99774.56
2023-04-20T12:25:43.171Z,99763.01
2023-04-20T12:26:47.423Z,99773.19
2023-04-20T12:27:50.740Z,99776.20
2023-04-20T12:28:55.417Z,99777.17
2023-04-20T12:30:02.146Z,99759.53
2023-04-20T12:31:06.250Z,99768.53
2023-04-20T12:32:09.821Z,99765.14
2023-04-20T12:33:12.487Z,99765.84
2023-04-20T12:34:15.554Z,99774.27
2023-04-20T12:35:20.426Z,99761.73
2023-04-20T12:36:24.078Z,99761.98
2023-04-20T12:37:28.078Z,99758.97
2023-04-20T12:38:31.703Z,99764.70
2023-04-20T12:39:35.086Z,99765.67
2023-04-20T12:40:38.499Z,99759.56
2023-04-20T12:41:43.513Z,99759.97
2023-04-20T12:42:46.964Z,99763.86